createdAt,value
2022-12-01T00:01:21.074Z,15.20
2022-12-01T00:03:48.734Z,16.13
2022-12-01T00:06:19.119Z,16.20
2022-12-01T00:09:06.790Z,14.27
2022-12-01T00:11:35.368Z,14.03
2022-12-01T00:14:03.658Z,15.63
2022-12-01T00:16:31.321Z,12.73
2022-12-01T00:18:58.775Z,13.37
2022-12-01T00:21:27.009Z,12.00
2022-12-01T00:23:56.733Z,15.67
2022-12-01T00:26:24.896Z,13.73
2022-12-01T00:28:57.581Z,15.07
2022-12-01T00:31:25.474Z,13.03
2022-12-01T00:33:53.233Z,15.10
2022-12-01T00:36:22.045Z,13.10
2022-12-01T00:38:52.516Z,16.00
2022-12-01T00:41:21.007Z,15.03
2022-12-01T00:43:48.432Z,17.47
2022-12-01T00:46:15.830Z,15.60
2022-12-01T00:48:43.143Z,14.90
2022-12-01T00:51:10.392Z,14.63
2022-12-01T00:53:37.709Z,17.57
2022-12-01T00:56:05.134Z,17.17
2022-12-01T00:58:32.463Z,15.40
2022-12-01T01:01:01.590Z,16.40
2022-12-01T01:03:30.283Z,16.70
2022-12-01T01:06:10.865Z,15.37
2022-12-01T01:08:38.324Z,15.90
2022-12-01T01:11:07.415Z,18.50
2022-12-01T01:13:34.912Z,16.67
2022-12-01T01:16:15.051Z,17.03
2022-12-01T01:18:42.384Z,17.30
2022-12-01T01:21:13.919Z,16.80
2022-12-01T01:23:41.421Z,18.63
2022-12-01T01:26:16.649Z,19.77
2022-12-01T01:28:46.153Z,15.40
2022-12-01T01:31:16.066Z,16.83
2022-12-01T01:33:44.118Z,18.90
2022-12-01T01:36:11.929Z,18.37
2022-12-01T01:38:39.184Z,20.57
2022-12-01T01:41:07.374Z,21.00
2022-12-01T01:43:49.272Z,20.03
2022-12-01T01:46:28.360Z,18.80
2022-12-01T01:49:03.633Z,23.33
2022-12-01T01:51:40.580Z,20.50
2022-12-01T01:54:16.733Z,20.17
2022-12-01T01:56:46.247Z,20.40
2022-12-01T01:59:17.342Z,25.07
2022-12-01T02:01:47.503Z,27.73
2022-12-01T02:04:15.837Z,28.97
2022-12-01T02:06:43.101Z,21.60
2022-12-01T02:09:12.574Z,25.37
2022-12-01T02:11:48.830Z,27.57
2022-12-01T02:14:47.524Z,25.93
2022-12-01T02:17:41.532Z,28.13
2022-12-01T02:20:45.578Z,26.23
2022-12-01T02:23:34.349Z,30.23
2022-12-01T02:26:50.790Z,26.53
2022-12-01T02:29:29.713Z,29.70
2022-12-01T02:32:23.231Z,29.17
2022-12-01T02:35:13.299Z,29.03
2022-12-01T02:38:21.614Z,31.70
2022-12-01T02:41:04.593Z,31.70
2022-12-01T02:43:51.296Z,29.90
2022-12-01T02:46:27.354Z,28.07
2022-12-01T02:48:58.105Z,27.03
2022-12-01T02:51:32.195Z,27.10
2022-12-01T02:54:02.212Z,30.43
2022-12-01T02:56:29.789Z,24.73
2022-12-01T02:58:57.286Z,26.47
2022-12-01T03:01:37.963Z,27.40
2022-12-01T03:04:14.144Z,28.40
2022-12-01T03:07:13.545Z,27.53
2022-12-01T03:10:14.163Z,27.80
2022-12-01T03:13:12.717Z,29.73
2022-12-01T03:15:43.291Z,23.80
2022-12-01T03:18:30.958Z,27.17
2022-12-01T03:21:23.502Z,24.37
2022-12-01T03:23:56.176Z,27.40
2022-12-01T03:26:26.295Z,28.60
2022-12-01T03:28:58.445Z,27.87
2022-12-01T03:31:31.805Z,32.50
2022-12-01T03:34:04.679Z,28.33
2022-12-01T03:36:58.627Z,26.93
2022-12-01T03:39:33.181Z,29.53
2022-12-01T03:42:05.645Z,31.83
2022-12-01T03:44:48.063Z,32.67
2022-12-01T03:47:29.484Z,33.27
2022-12-01T03:49:57.200Z,32.63
2022-12-01T03:52:49.356Z,34.63
2022-12-01T03:55:22.300Z,33.37
2022-12-01T03:58:05.604Z,37.37
2022-12-01T04:00:33.343Z,37.43
2022-12-01T04:03:03.730Z,32.67
2022-12-01T04:05:32.924Z,33.77
2022-12-01T04:08:00.828Z,36.77
2022-12-01T04:10:28.069Z,43.37
2022-12-01T04:12:59.268Z,34.53
2022-12-01T04:15:27.653Z,37.73
2022-12-01T04:17:54.880Z,41.30
2022-12-01T04:20:22.374Z,41.80
2022-12-01T04:22:49.896Z,38.97
2022-12-01T04:25:17.127Z,31.87
2022-12-01T04:27:44.580Z,43.23
2022-12-01T04:30:12.577Z,50.07
2022-12-01T04:32:41.337Z,48.80
2022-12-01T04:35:10.676Z,42.47
2022-12-01T04:37:38.646Z,47.53
2022-12-01T04:40:06.809Z,49.23
2022-12-01T04:42:34.207Z,40.67
2022-12-01T04:45:01.423Z,48.27
2022-12-01T04:47:28.615Z,42.27
2022-12-01T04:49:55.817Z,44.83
2022-12-01T04:52:23.160Z,50.37
2022-12-01T04:54:50.357Z,41.20
2022-12-01T04:57:17.601Z,37.27
2022-12-01T04:59:44.831Z,49.17
2022-12-01T05:02:12.053Z,41.67
2022-12-01T05:04:41.503Z,45.37
2022-12-01T05:07:09.027Z,45.83
2022-12-01T05:09:36.533Z,45.33
2022-12-01T05:12:03.897Z,52.33
2022-12-01T05:14:31.171Z,51.00
2022-12-01T05:16:59.779Z,45.50
2022-12-01T05:19:45.799Z,45.93
2022-12-01T05:22:13.067Z,41.43
2022-12-01T05:24:40.326Z,47.67
2022-12-01T05:27:07.524Z,42.53
2022-12-01T05:29:35.801Z,42.33
2022-12-01T05:32:03.708Z,43.60
2022-12-01T05:34:30.952Z,40.43
2022-12-01T05:36:58.190Z,48.97
2022-12-01T05:39:25.505Z,44.50
2022-12-01T05:41:53.807Z,43.70
2022-12-01T05:44:20.976Z,45.13
2022-12-01T05:46:48.200Z,44.53
2022-12-01T05:49:15.466Z,41.63
2022-12-01T05:51:44.156Z,46.60
2022-12-01T05:54:11.340Z,42.67
2022-12-01T05:56:38.581Z,38.03
2022-12-01T05:59:05.852Z,47.87
2022-12-01T06:01:33.390Z,38.17
2022-12-01T06:04:00.864Z,37.70
2022-12-01T06:06:28.304Z,42.30
2022-12-01T06:08:55.551Z,39.47
2022-12-01T06:11:22.815Z,40.77
2022-12-01T06:13:50.028Z,40.07
2022-12-01T06:16:17.305Z,39.87
2022-12-01T06:18:44.597Z,35.03
2022-12-01T06:21:11.808Z,36.80
2022-12-01T06:23:39.029Z,36.27
2022-12-01T06:26:06.301Z,39.63
2022-12-01T06:28:33.587Z,36.90
2022-12-01T06:31:03.357Z,36.90
2022-12-01T06:33:31.847Z,42.47
2022-12-01T06:36:04.641Z,43.83
2022-12-01T06:38:34.323Z,40.33
2022-12-01T06:41:01.985Z,40.03
2022-12-01T06:43:29.694Z,38.97
2022-12-01T06:46:01.777Z,45.57
2022-12-01T06:48:30.383Z,41.83
2022-12-01T06:51:01.984Z,37.67
2022-12-01T06:53:29.726Z,40.17
2022-12-01T06:56:04.478Z,40.17
2022-12-01T06:58:32.718Z,40.73
2022-12-01T07:01:00.324Z,34.33
2022-12-01T07:03:27.582Z,35.70
2022-12-01T07:05:59.588Z,44.17
2022-12-01T07:08:31.383Z,35.13
2022-12-01T07:11:04.724Z,42.80
2022-12-01T07:13:33.909Z,34.57
2022-12-01T07:16:03.103Z,37.43
2022-12-01T07:18:32.013Z,31.73
2022-12-01T07:21:07.112Z,32.93
2022-12-01T07:23:35.075Z,35.60
2022-12-01T07:26:14.063Z,43.70
2022-12-01T07:28:41.867Z,36.70
2022-12-01T07:31:12.200Z,34.97
2022-12-01T07:33:39.904Z,41.07
2022-12-01T07:36:07.858Z,35.23
2022-12-01T07:38:35.866Z,33.83
2022-12-01T07:41:09.330Z,34.87
2022-12-01T07:43:37.438Z,34.53
2022-12-01T07:46:26.114Z,32.83
2022-12-01T07:48:55.173Z,34.23
2022-12-01T07:51:26.036Z,33.70
2022-12-01T07:53:54.362Z,34.90
2022-12-01T07:56:23.024Z,35.23
2022-12-01T07:58:50.293Z,32.97
2022-12-01T08:01:20.717Z,28.03
2022-12-01T08:03:58.545Z,33.70
2022-12-01T08:06:26.666Z,30.73
2022-12-01T08:08:54.092Z,32.07
2022-12-01T08:11:24.218Z,32.80
2022-12-01T08:13:52.595Z,31.80
2022-12-01T08:16:23.250Z,31.73
2022-12-01T08:18:51.213Z,34.60
2022-12-01T08:21:22.224Z,31.50
2022-12-01T08:23:53.693Z,30.43
2022-12-01T08:26:22.095Z,34.33
2022-12-01T08:28:49.969Z,33.37
2022-12-01T08:31:31.228Z,35.70
2022-12-01T08:33:58.704Z,35.40
2022-12-01T08:36:26.228Z,36.27
2022-12-01T08:38:55.280Z,30.93
2022-12-01T08:41:24.148Z,31.27
2022-12-01T08:44:00.069Z,31.17
2022-12-01T08:46:33.110Z,33.00
2022-12-01T08:49:01.443Z,30.77
2022-12-01T08:51:29.344Z,29.70
2022-12-01T08:53:58.345Z,34.40
2022-12-01T08:56:32.636Z,38.33
2022-12-01T08:59:00.037Z,28.57
2022-12-01T09:01:27.989Z,36.40
2022-12-01T09:04:06.317Z,29.53
2022-12-01T09:06:45.013Z,34.03
2022-12-01T09:09:17.843Z,24.67
2022-12-01T09:11:46.039Z,29.20
2022-12-01T09:14:15.018Z,29.77
2022-12-01T09:16:43.152Z,31.40
2022-12-01T09:19:13.065Z,33.33
2022-12-01T09:21:42.672Z,29.17
2022-12-01T09:24:12.017Z,30.27
2022-12-01T09:26:39.594Z,33.40
2022-12-01T09:29:09.726Z,25.20
2022-12-01T09:31:37.731Z,31.20
2022-12-01T09:34:07.248Z,26.30
2022-12-01T09:36:36.308Z,24.70
2022-12-01T09:39:05.190Z,26.67
2022-12-01T09:41:34.928Z,23.27
2022-12-01T09:44:14.436Z,26.10
2022-12-01T09:46:48.390Z,25.53
2022-12-01T09:49:19.163Z,24.30
2022-12-01T09:51:46.580Z,27.43
2022-12-01T09:54:14.569Z,28.53
2022-12-01T09:56:49.356Z,23.77
2022-12-01T09:59:31.040Z,23.73
2022-12-01T10:02:38.550Z,25.10
2022-12-01T10:05:16.063Z,21.43
2022-12-01T10:07:51.179Z,25.23
2022-12-01T10:10:24.452Z,21.93
2022-12-01T10:12:52.288Z,23.40
2022-12-01T10:15:54.733Z,24.43
2022-12-01T10:18:33.620Z,23.43
2022-12-01T10:21:16.704Z,24.20
2022-12-01T10:23:49.890Z,27.27
2022-12-01T10:26:45.444Z,20.23
2022-12-01T10:29:24.639Z,21.50
2022-12-01T10:32:06.990Z,21.43
2022-12-01T10:34:38.061Z,20.70
2022-12-01T10:37:06.543Z,19.57
2022-12-01T10:39:46.632Z,21.40
2022-12-01T10:42:34.476Z,21.57
2022-12-01T10:45:04.760Z,20.37
2022-12-01T10:47:32.182Z,20.00
2022-12-01T10:49:59.475Z,18.90
2022-12-01T10:52:41.032Z,17.20
2022-12-01T10:55:26.303Z,15.47
2022-12-01T10:58:00.244Z,13.53
2022-12-01T11:03:35.797Z,17.93
2022-12-01T11:06:06.544Z,20.53
2022-12-01T11:08:40.129Z,20.43
2022-12-01T11:11:29.955Z,18.93
2022-12-01T11:14:00.092Z,16.57
2022-12-01T11:16:37.942Z,17.87
2022-12-01T11:19:35.505Z,18.20
2022-12-01T11:22:19.194Z,21.33
2022-12-01T11:24:52.543Z,21.43
2022-12-01T11:27:30.861Z,20.33
2022-12-01T11:30:06.528Z,19.80
2022-12-01T11:32:37.871Z,19.00
2022-12-01T11:35:14.068Z,20.50
2022-12-01T11:38:27.780Z,23.17
2022-12-01T11:40:54.029Z,19.67
2022-12-01T11:43:36.196Z,19.73
2022-12-01T11:46:07.908Z,19.85
2022-12-01T11:48:36.544Z,17.38
2022-12-01T11:51:11.797Z,19.90
2022-12-01T11:53:41.866Z,17.13
2022-12-01T11:56:28.751Z,18.05
2022-12-01T11:59:27.064Z,18.77
2022-12-01T12:02:15.996Z,16.30
2022-12-01T12:04:58.534Z,19.57
2022-12-01T12:08:07.531Z,19.30
2022-12-01T12:10:40.517Z,22.00
2022-12-01T12:13:30.023Z,20.57
2022-12-01T12:16:15.361Z,22.87
2022-12-01T12:18:54.979Z,23.23
2022-12-01T12:21:37.968Z,23.13
2022-12-01T12:24:13.139Z,21.10
2022-12-01T12:26:56.397Z,27.43
2022-12-01T12:29:26.938Z,23.40
2022-12-01T12:32:28.443Z,27.23
2022-12-01T12:35:13.420Z,27.53
2022-12-01T12:37:59.670Z,23.70
2022-12-01T12:40:42.735Z,28.13
2022-12-01T12:43:33.510Z,31.97
2022-12-01T12:46:07.272Z,30.60
2022-12-01T12:51:50.815Z,30.77
2022-12-01T12:54:26.195Z,30.43
2022-12-01T12:57:01.670Z,28.37
2022-12-01T12:59:39.182Z,26.97
2022-12-01T13:02:33.306Z,34.60
2022-12-01T13:05:18.705Z,35.07
2022-12-01T13:08:01.129Z,33.23
2022-12-01T13:10:32.548Z,28.83
2022-12-01T13:13:10.822Z,32.67
2022-12-01T13:15:40.362Z,29.80
2022-12-01T13:18:42.560Z,34.30
2022-12-01T13:21:16.243Z,34.70
2022-12-01T13:23:45.566Z,30.77
2022-12-01T13:26:15.537Z,33.43
2022-12-01T13:29:05.850Z,29.87
2022-12-01T13:31:48.032Z,33.33
2022-12-01T13:34:34.252Z,28.80
2022-12-01T13:37:01.728Z,30.33
2022-12-01T13:39:35.633Z,31.67
2022-12-01T13:42:19.072Z,29.67
2022-12-01T13:44:56.882Z,31.57
2022-12-01T13:47:54.381Z,29.90
2022-12-01T13:50:46.499Z,30.87
2022-12-01T13:53:28.248Z,29.80
2022-12-01T13:56:07.352Z,30.03
2022-12-01T13:58:34.578Z,28.60
2022-12-01T14:01:20.577Z,31.33
2022-12-01T14:04:27.697Z,29.30
2022-12-01T14:07:21.129Z,34.30
2022-12-01T14:09:51.681Z,31.67
2022-12-01T14:12:23.912Z,28.93
2022-12-01T14:15:04.474Z,34.17
2022-12-01T14:17:34.703Z,31.87
2022-12-01T14:20:14.679Z,34.03
2022-12-01T14:22:45.033Z,32.30
2022-12-01T14:25:21.610Z,40.20
2022-12-01T14:27:51.581Z,35.20
2022-12-01T14:30:51.707Z,35.47
2022-12-01T14:33:53.042Z,31.60
2022-12-01T14:36:23.367Z,33.03
2022-12-01T14:39:02.025Z,31.07
2022-12-01T14:41:31.418Z,33.10
2022-12-01T14:44:25.591Z,32.30
2022-12-01T14:47:17.283Z,32.53
2022-12-01T14:49:53.561Z,37.67
2022-12-01T14:52:27.988Z,33.20
2022-12-01T14:55:00.801Z,34.93
2022-12-01T14:57:32.729Z,38.30
2022-12-01T15:00:11.009Z,43.80
2022-12-01T15:02:54.706Z,34.10
2022-12-01T15:05:27.340Z,36.63
2022-12-01T15:08:18.780Z,34.97
2022-12-01T15:11:07.899Z,34.73
2022-12-01T15:13:52.644Z,31.00
2022-12-01T15:16:24.754Z,34.80
2022-12-01T15:18:52.847Z,33.47
2022-12-01T15:21:24.271Z,37.53
2022-12-01T15:24:17.249Z,33.50
2022-12-01T15:26:50.673Z,36.23
2022-12-01T15:29:25.094Z,31.67
2022-12-01T15:32:06.004Z,29.47
2022-12-01T15:34:45.914Z,33.30
2022-12-01T15:37:22.447Z,33.90
2022-12-01T15:40:00.286Z,29.63
2022-12-01T15:42:39.637Z,27.83
2022-12-01T15:45:19.633Z,29.93
2022-12-01T15:47:49.600Z,27.70
2022-12-01T15:50:33.923Z,26.77
2022-12-01T15:53:22.805Z,26.63
2022-12-01T15:55:57.152Z,27.43
2022-12-01T15:58:33.032Z,32.57
2022-12-01T16:01:01.855Z,30.20
2022-12-01T16:03:29.897Z,29.60
2022-12-01T16:05:58.263Z,33.97
2022-12-01T16:08:27.831Z,38.07
2022-12-01T16:11:13.976Z,28.87
2022-12-01T16:13:47.061Z,33.40
2022-12-01T16:16:41.576Z,30.50
2022-12-01T16:19:11.848Z,30.03
2022-12-01T16:21:49.019Z,29.30
2022-12-01T16:24:36.203Z,25.73
2022-12-01T16:27:07.163Z,28.67
2022-12-01T16:29:57.551Z,29.33
2022-12-01T16:32:38.229Z,28.27
2022-12-01T16:35:07.552Z,30.40
2022-12-01T16:37:34.893Z,32.40
2022-12-01T16:40:02.257Z,28.87
2022-12-01T16:42:29.659Z,33.07
2022-12-01T16:44:56.980Z,36.17
2022-12-01T16:47:25.380Z,31.60
2022-12-01T16:49:53.135Z,30.30
2022-12-01T16:55:48.156Z,33.57
2022-12-01T16:58:15.542Z,31.83
2022-12-01T17:00:42.769Z,32.83
2022-12-01T17:03:15.861Z,33.73
2022-12-01T17:05:43.085Z,32.10
2022-12-01T17:08:10.759Z,33.77
2022-12-01T17:10:42.454Z,35.40
2022-12-01T17:13:17.439Z,38.87
2022-12-01T17:15:48.826Z,34.33
2022-12-01T17:18:17.858Z,40.07
2022-12-01T17:21:06.223Z,40.57
2022-12-01T17:23:33.817Z,39.37
2022-12-01T17:26:01.458Z,39.37
2022-12-01T17:28:28.774Z,39.43
2022-12-01T17:31:00.350Z,41.03
2022-12-01T17:33:27.706Z,44.70
2022-12-01T17:35:54.965Z,39.00
2022-12-01T17:38:22.176Z,45.33
2022-12-01T17:41:08.245Z,41.03
2022-12-01T17:43:37.012Z,43.97
2022-12-01T17:46:07.198Z,41.30
2022-12-01T17:48:40.248Z,34.63
2022-12-01T17:51:08.910Z,37.93
2022-12-01T17:53:39.309Z,39.80
2022-12-01T17:56:08.711Z,43.07
2022-12-01T17:58:36.810Z,41.87
2022-12-01T18:01:04.900Z,46.27
2022-12-01T18:03:32.557Z,50.13
2022-12-01T18:06:01.836Z,46.33
2022-12-01T18:08:31.260Z,41.33
2022-12-01T18:11:02.868Z,49.97
2022-12-01T18:13:30.095Z,46.17
2022-12-01T18:15:57.313Z,45.77
2022-12-01T18:18:24.622Z,54.13
2022-12-01T18:20:51.828Z,49.47
2022-12-01T18:23:19.271Z,46.60
2022-12-01T18:25:46.549Z,54.67
2022-12-01T18:28:13.787Z,46.40
2022-12-01T18:30:41.452Z,47.73
2022-12-01T18:33:12.213Z,53.20
2022-12-01T18:35:44.781Z,52.73
2022-12-01T18:38:11.986Z,48.67
2022-12-01T18:40:39.706Z,56.73
2022-12-01T18:43:06.974Z,53.37
2022-12-01T18:45:38.900Z,50.27
2022-12-01T18:48:06.310Z,43.47
2022-12-01T18:50:36.504Z,46.93
2022-12-01T18:53:03.804Z,46.90
2022-12-01T18:55:31.133Z,41.80
2022-12-01T18:57:58.344Z,44.73
2022-12-01T19:00:25.624Z,47.73
2022-12-01T19:02:52.905Z,46.27
2022-12-01T19:05:21.255Z,44.80
2022-12-01T19:07:49.115Z,46.80
2022-12-01T19:10:17.300Z,43.90
2022-12-01T19:12:44.633Z,43.40
2022-12-01T19:15:12.403Z,45.17
2022-12-01T19:17:39.749Z,42.70
2022-12-01T19:20:07.866Z,42.37
2022-12-01T19:22:35.299Z,40.50
2022-12-01T19:25:02.888Z,37.27
2022-12-01T19:27:31.088Z,38.40
2022-12-01T19:29:58.332Z,41.30
2022-12-01T19:32:25.722Z,40.93
2022-12-01T19:34:53.569Z,44.00
2022-12-01T19:37:20.820Z,44.17
2022-12-01T19:39:49.910Z,36.43
2022-12-01T19:42:17.275Z,37.80
2022-12-01T19:44:44.780Z,31.47
2022-12-01T19:47:12.294Z,30.23
2022-12-01T19:49:39.667Z,32.97
2022-12-01T19:52:17.371Z,27.27
2022-12-01T19:54:44.658Z,25.47
2022-12-01T19:57:11.951Z,27.03
2022-12-01T19:59:39.290Z,24.33
2022-12-01T20:02:09.917Z,31.33
2022-12-01T20:04:38.982Z,30.40
2022-12-01T20:07:06.392Z,25.83
2022-12-01T20:09:33.638Z,25.97
2022-12-01T20:12:00.888Z,26.17
2022-12-01T20:14:28.190Z,23.77
2022-12-01T20:16:56.075Z,24.23
2022-12-01T20:19:23.732Z,24.77
2022-12-01T20:21:50.901Z,27.87
2022-12-01T20:24:22.093Z,24.27
2022-12-01T20:26:56.591Z,29.93
2022-12-01T20:29:28.456Z,23.10
2022-12-01T20:31:58.374Z,27.97
2022-12-01T20:34:33.290Z,28.03
2022-12-01T20:37:01.037Z,25.50
2022-12-01T20:39:31.469Z,28.73
2022-12-01T20:41:58.688Z,24.63
2022-12-01T20:44:25.935Z,29.40
2022-12-01T20:46:53.301Z,28.33
2022-12-01T20:49:21.223Z,29.50
2022-12-01T20:51:48.885Z,27.23
2022-12-01T20:54:32.972Z,27.70
2022-12-01T20:57:00.272Z,31.23
2022-12-01T20:59:28.439Z,29.47
2022-12-01T21:01:56.074Z,30.37
2022-12-01T21:04:23.399Z,26.37
2022-12-01T21:06:50.999Z,30.60
2022-12-01T21:09:18.235Z,26.37
2022-12-01T21:12:06.544Z,28.13
2022-12-01T21:14:55.868Z,25.70
2022-12-01T21:17:34.262Z,30.23
2022-12-01T21:20:25.095Z,27.77
2022-12-01T21:22:53.610Z,33.33
2022-12-01T21:25:23.874Z,30.17
2022-12-01T21:27:51.691Z,30.70
2022-12-01T21:30:21.925Z,29.00
2022-12-01T21:32:49.941Z,32.17
2022-12-01T21:35:19.142Z,30.47
2022-12-01T21:37:48.083Z,30.57
2022-12-01T21:40:22.281Z,31.33
2022-12-01T21:42:49.881Z,29.67
2022-12-01T21:49:44.536Z,26.77
2022-12-01T21:52:39.755Z,31.13
2022-12-01T21:55:16.250Z,36.03
2022-12-01T21:57:46.204Z,30.93
2022-12-01T22:00:36.794Z,38.20
2022-12-01T22:03:09.866Z,37.00
2022-12-01T22:05:40.352Z,32.57
2022-12-01T22:08:13.781Z,36.27
2022-12-01T22:11:08.416Z,34.07
2022-12-01T22:13:47.220Z,34.37
2022-12-01T22:16:18.751Z,34.83
2022-12-01T22:18:51.817Z,36.63
2022-12-01T22:21:22.045Z,37.43
2022-12-01T22:23:50.308Z,35.63
2022-12-01T22:26:20.562Z,37.30
2022-12-01T22:28:53.038Z,31.53
2022-12-01T22:31:21.725Z,37.20
2022-12-01T22:33:57.694Z,34.97
2022-12-01T22:36:31.662Z,34.80
2022-12-01T22:38:59.310Z,39.17
2022-12-01T22:41:28.774Z,32.33
2022-12-01T22:43:59.409Z,41.43
2022-12-01T22:46:31.706Z,41.80
2022-12-01T22:49:06.037Z,42.87
2022-12-01T22:51:48.078Z,36.73
2022-12-01T22:54:15.340Z,35.20
2022-12-01T22:56:48.630Z,40.83
2022-12-01T22:59:27.864Z,34.23
2022-12-01T23:02:00.955Z,33.73
2022-12-01T23:04:32.557Z,38.20
2022-12-01T23:07:41.547Z,43.00
2022-12-01T23:10:21.341Z,38.23
2022-12-01T23:12:50.700Z,38.10
2022-12-01T23:15:38.185Z,39.13
2022-12-01T23:18:25.124Z,37.67
2022-12-01T23:20:54.738Z,42.47
2022-12-01T23:23:27.946Z,33.57
2022-12-01T23:25:55.694Z,35.00
2022-12-01T23:28:24.062Z,42.23
2022-12-01T23:30:54.995Z,35.87
2022-12-01T23:33:24.716Z,32.83
2022-12-01T23:36:05.802Z,34.73
2022-12-01T23:38:39.274Z,30.53
2022-12-01T23:41:10.679Z,37.37
2022-12-01T23:43:41.442Z,37.97
2022-12-01T23:46:13.708Z,36.77
2022-12-01T23:48:54.330Z,32.17
2022-12-01T23:51:25.993Z,38.87
2022-12-01T23:53:55.480Z,38.80
2022-12-01T23:56:28.034Z,30.27
2022-12-01T23:58:56.566Z,35.23
